createdAt,value
2018-06-11T00:01:41.411Z,79.60
2018-06-11T00:04:10.407Z,79.80
2018-06-11T00:06:39.419Z,79.80
2018-06-11T00:09:08.947Z,80.80
2018-06-11T00:11:37.925Z,80.10
2018-06-11T00:14:06.914Z,80.10
2018-06-11T00:16:35.913Z,80.30
2018-06-11T00:19:04.909Z,80.50
2018-06-11T00:21:33.895Z,80.70
2018-06-11T00:24:02.905Z,80.90
2018-06-11T00:26:31.871Z,81.00
2018-06-11T00:29:02.243Z,81.30
2018-06-11T00:31:31.299Z,81.30
2018-06-11T00:34:00.238Z,81.50
2018-06-11T00:36:29.247Z,81.60
2018-06-11T00:38:58.243Z,81.80
2018-06-11T00:41:27.206Z,82.00
2018-06-11T00:43:56.218Z,82.20
2018-06-11T00:46:25.279Z,82.10
2018-06-11T00:48:54.267Z,82.30
2018-06-11T00:51:23.262Z,82.60
2018-06-11T00:53:52.284Z,82.80
2018-06-11T00:56:21.223Z,83.00
2018-06-11T00:58:50.231Z,83.10
2018-06-11T01:01:19.266Z,83.00
2018-06-11T01:03:48.243Z,83.00
2018-06-11T01:06:17.629Z,83.00
2018-06-11T01:08:46.839Z,82.80
2018-06-11T01:11:16.171Z,82.80
2018-06-11T01:13:45.453Z,82.90
2018-06-11T01:16:14.717Z,83.10
2018-06-11T01:18:43.991Z,83.10
2018-06-11T01:21:13.216Z,83.20
2018-06-11T01:23:42.475Z,83.30
2018-06-11T01:26:11.699Z,83.40
2018-06-11T01:28:40.952Z,83.60
2018-06-11T01:31:10.167Z,83.70
2018-06-11T01:33:39.416Z,83.80
2018-06-11T01:36:08.636Z,83.90
2018-06-11T01:38:37.931Z,84.10
2018-06-11T01:41:07.210Z,84.20
2018-06-11T01:43:36.553Z,84.30
2018-06-11T01:46:05.995Z,84.30
2018-06-11T01:48:35.794Z,84.50
2018-06-11T01:51:05.059Z,84.50
2018-06-11T01:53:39.560Z,85.50
2018-06-11T01:56:08.771Z,84.80
2018-06-11T01:58:38.076Z,84.60
2018-06-11T02:01:07.398Z,84.70
2018-06-11T02:03:37.044Z,84.90
2018-06-11T02:06:06.428Z,85.00
2018-06-11T02:08:35.662Z,85.00
2018-06-11T02:11:04.969Z,85.00
2018-06-11T02:13:34.304Z,85.90
2018-06-11T02:16:03.575Z,85.20
2018-06-11T02:18:32.872Z,85.30
2018-06-11T02:21:02.080Z,85.50
2018-06-11T02:23:31.583Z,85.50
2018-06-11T02:26:00.786Z,85.70
2018-06-11T02:28:30.021Z,86.70
2018-06-11T02:30:59.883Z,86.20
2018-06-11T02:33:29.165Z,86.40
2018-06-11T02:35:58.416Z,86.80
2018-06-11T02:38:28.967Z,86.90
2018-06-11T02:40:59.604Z,87.00
2018-06-11T02:43:28.864Z,86.90
2018-06-11T02:45:57.875Z,86.90
2018-06-11T02:48:26.906Z,87.70
2018-06-11T02:50:55.991Z,88.00
2018-06-11T02:53:25.057Z,88.20
2018-06-11T02:55:54.138Z,88.40
2018-06-11T02:58:23.206Z,88.40
2018-06-11T03:00:52.436Z,88.40
2018-06-11T03:03:21.642Z,88.30
2018-06-11T03:05:50.881Z,88.20
2018-06-11T03:08:20.124Z,88.10
2018-06-11T03:10:49.379Z,88.00
2018-06-11T03:13:18.351Z,88.10
2018-06-11T03:15:47.378Z,88.30
2018-06-11T03:18:16.378Z,88.40
2018-06-11T03:20:45.354Z,88.70
2018-06-11T03:23:14.365Z,88.90
2018-06-11T03:25:43.431Z,88.90
2018-06-11T03:28:12.700Z,89.00
2018-06-11T03:30:41.992Z,89.10
2018-06-11T03:35:39.940Z,89.40
2018-06-11T03:38:09.644Z,89.40
2018-06-11T03:40:38.956Z,89.40
2018-06-11T03:43:08.192Z,89.30
2018-06-11T03:45:37.488Z,89.50
2018-06-11T03:48:06.775Z,89.50
2018-06-11T03:53:05.149Z,89.30
2018-06-11T03:55:34.471Z,89.90
2018-06-11T03:58:03.765Z,89.10
2018-06-11T04:00:33.029Z,89.20
2018-06-11T04:03:02.344Z,89.30
2018-06-11T04:05:31.468Z,89.30
2018-06-11T04:08:00.517Z,89.30
2018-06-11T04:13:32.927Z,89.30
2018-06-11T04:16:02.198Z,89.30
2018-06-11T04:18:31.312Z,89.40
2018-06-11T04:21:00.274Z,89.40
2018-06-11T04:23:29.288Z,89.40
2018-06-11T04:25:58.368Z,89.40
2018-06-11T04:28:27.394Z,89.40
2018-06-11T04:30:56.381Z,89.50
2018-06-11T04:33:25.563Z,89.50
2018-06-11T04:35:54.522Z,89.60
2018-06-11T04:38:23.507Z,89.60
2018-06-11T04:40:52.535Z,89.70
2018-06-11T04:43:21.700Z,89.70
2018-06-11T04:45:51.020Z,89.80
2018-06-11T04:48:20.273Z,89.90
2018-06-11T04:50:49.488Z,89.80
2018-06-11T04:59:24.346Z,89.60
2018-06-11T05:01:53.649Z,89.60
2018-06-11T05:04:23.016Z,89.60
2018-06-11T05:06:52.042Z,89.60
2018-06-11T05:09:21.175Z,89.60
2018-06-11T05:11:50.167Z,89.70
2018-06-11T05:14:19.150Z,89.60
2018-06-11T05:16:48.123Z,89.50
2018-06-11T05:19:17.483Z,89.30
2018-06-11T05:21:46.486Z,89.30
2018-06-11T05:24:15.469Z,89.20
2018-06-11T05:26:44.483Z,89.30
2018-06-11T05:29:13.474Z,89.90
2018-06-11T05:31:42.426Z,89.20
2018-06-11T05:34:27.026Z,89.20
2018-06-11T05:36:56.092Z,89.30
2018-06-11T05:39:26.370Z,89.00
2018-06-11T05:44:53.266Z,88.40
2018-06-11T05:47:24.302Z,88.10
2018-06-11T05:49:53.290Z,88.20
2018-06-11T05:52:22.351Z,87.70
2018-06-11T05:54:51.346Z,87.20
2018-06-11T05:57:20.339Z,86.90
2018-06-11T05:59:49.383Z,86.80
2018-06-11T06:02:18.346Z,86.60
2018-06-11T06:04:47.350Z,86.30
2018-06-11T06:07:16.404Z,86.10
2018-06-11T06:09:45.868Z,85.90
2018-06-11T06:12:14.875Z,85.70
2018-06-11T06:14:43.874Z,85.60
2018-06-11T06:17:12.875Z,85.40
2018-06-11T06:19:41.890Z,85.40
2018-06-11T06:22:10.909Z,85.00
2018-06-11T06:24:39.916Z,84.80
2018-06-11T06:27:09.217Z,84.50
2018-06-11T06:29:38.515Z,84.30
2018-06-11T06:32:07.750Z,84.20
2018-06-11T06:34:37.527Z,84.20
2018-06-11T06:37:06.835Z,83.90
2018-06-11T06:39:37.081Z,83.80
2018-06-11T06:42:06.303Z,83.30
2018-06-11T06:44:36.386Z,82.90
2018-06-11T06:47:07.192Z,82.50
2018-06-11T06:49:36.257Z,82.30
2018-06-11T06:52:06.122Z,81.90
2018-06-11T06:54:35.509Z,81.50
2018-06-11T06:57:04.823Z,81.10
2018-06-11T06:59:33.915Z,80.70
2018-06-11T07:02:03.337Z,80.20
2018-06-11T07:04:33.732Z,79.40
2018-06-11T07:07:03.650Z,79.10
2018-06-11T07:09:33.113Z,78.60
2018-06-11T07:12:02.217Z,78.60
2018-06-11T07:14:31.907Z,78.90
2018-06-11T07:17:00.954Z,79.20
2018-06-11T07:19:29.941Z,79.30
2018-06-11T07:22:00.870Z,79.40
2018-06-11T07:24:31.937Z,79.40
2018-06-11T07:27:02.396Z,79.50
2018-06-11T07:29:45.431Z,79.50
2018-06-11T07:32:16.906Z,79.50
2018-06-11T07:34:48.575Z,79.30
2018-06-11T07:37:18.283Z,78.90
2018-06-11T07:39:48.529Z,78.00
2018-06-11T07:42:33.235Z,77.10
2018-06-11T07:45:03.593Z,76.40
2018-06-11T07:47:34.112Z,75.70
2018-06-11T07:50:03.485Z,75.00
2018-06-11T07:52:33.777Z,74.60
2018-06-11T07:55:04.382Z,74.20
2018-06-11T07:57:34.747Z,73.70
2018-06-11T08:00:04.964Z,73.40
2018-06-11T08:02:34.646Z,72.80
2018-06-11T08:05:04.465Z,71.90
2018-06-11T08:07:34.297Z,70.70
2018-06-11T08:10:04.047Z,70.80
2018-06-11T08:12:33.712Z,70.30
2018-06-11T08:15:03.803Z,69.70
2018-06-11T08:17:32.755Z,68.20
2018-06-11T08:20:02.053Z,67.70
2018-06-11T08:22:31.022Z,67.40
2018-06-11T08:25:00.216Z,66.80
2018-06-11T08:27:29.207Z,66.20
2018-06-11T08:29:59.559Z,65.60
2018-06-11T08:32:28.567Z,64.90
2018-06-11T08:34:57.595Z,64.40
2018-06-11T08:37:26.589Z,64.10
2018-06-11T08:39:56.706Z,63.80
2018-06-11T08:42:26.459Z,63.50
2018-06-11T08:44:57.395Z,63.00
2018-06-11T08:47:28.031Z,62.40
2018-06-11T08:58:41.758Z,60.10
2018-06-11T09:01:11.042Z,59.80
2018-06-11T09:03:40.297Z,59.60
2018-06-11T09:06:09.356Z,59.30
2018-06-11T09:08:38.363Z,58.90
2018-06-11T09:11:07.364Z,58.50
2018-06-11T09:13:36.684Z,58.40
2018-06-11T09:16:05.862Z,58.50
2018-06-11T09:18:34.913Z,58.80
2018-06-11T09:21:03.920Z,59.10
2018-06-11T09:23:32.895Z,59.40
2018-06-11T09:26:02.290Z,59.40
2018-06-11T09:28:31.258Z,59.60
2018-06-11T09:31:00.338Z,59.60
2018-06-11T09:33:29.303Z,59.70
2018-06-11T09:35:58.534Z,59.80
2018-06-11T09:38:27.494Z,59.50
2018-06-11T09:40:57.135Z,59.20
2018-06-11T09:43:26.179Z,58.80
2018-06-11T09:45:55.188Z,58.70
2018-06-11T09:48:24.157Z,58.50
2018-06-11T09:50:53.163Z,58.10
2018-06-11T09:53:39.786Z,57.70
2018-06-11T09:56:08.778Z,57.40
2018-06-11T09:58:37.774Z,57.00
2018-06-11T10:01:06.795Z,56.80
2018-06-11T10:03:35.802Z,56.70
2018-06-11T10:06:05.851Z,56.60
2018-06-11T10:08:34.868Z,56.70
2018-06-11T10:11:03.906Z,57.00
2018-06-11T10:13:33.181Z,57.20
2018-06-11T10:16:02.198Z,56.90
2018-06-11T10:18:31.174Z,56.80
2018-06-11T10:21:00.206Z,56.80
2018-06-11T10:23:29.233Z,56.90
2018-06-11T10:26:00.927Z,56.80
2018-06-11T10:28:30.228Z,56.70
2018-06-11T10:30:59.575Z,56.80
2018-06-11T10:33:28.826Z,56.80
2018-06-11T10:35:58.101Z,56.70
2018-06-11T10:38:27.525Z,56.60
2018-06-11T10:40:56.770Z,56.40
2018-06-11T10:43:26.110Z,56.40
2018-06-11T10:45:55.158Z,56.30
2018-06-11T10:48:24.129Z,56.10
2018-06-11T10:51:05.812Z,56.00
2018-06-11T10:53:34.753Z,55.80
2018-06-11T10:56:03.777Z,55.80
2018-06-11T10:58:32.804Z,55.80
2018-06-11T11:01:01.847Z,55.90
2018-06-11T11:03:30.811Z,56.10
2018-06-11T11:05:59.869Z,56.10
2018-06-11T11:08:28.874Z,56.10
2018-06-11T11:10:57.930Z,55.80
2018-06-11T11:13:26.922Z,55.90
2018-06-11T11:15:55.917Z,56.20
2018-06-11T11:18:25.007Z,56.60
2018-06-11T11:21:00.444Z,56.80
2018-06-11T11:23:29.650Z,57.60
2018-06-11T11:25:58.651Z,57.00
2018-06-11T11:28:27.671Z,56.80
2018-06-11T11:30:56.664Z,56.70
2018-06-11T11:33:25.682Z,56.70
2018-06-11T11:35:54.622Z,57.00
2018-06-11T11:38:23.658Z,57.20
2018-06-11T11:40:52.622Z,57.00
2018-06-11T11:43:22.252Z,57.10
2018-06-11T11:49:01.531Z,57.10
2018-06-11T11:51:31.895Z,57.00
2018-06-11T11:54:01.076Z,56.80
2018-06-11T11:56:30.044Z,56.90
2018-06-11T11:58:59.035Z,57.20
2018-06-11T12:01:27.996Z,57.90
2018-06-11T12:03:56.995Z,57.20
2018-06-11T12:06:25.944Z,57.20
2018-06-11T12:08:56.258Z,56.90
2018-06-11T12:11:25.258Z,56.70
2018-06-11T12:13:54.311Z,56.50
2018-06-11T12:16:24.338Z,56.30
2018-06-11T12:18:53.350Z,56.30
2018-06-11T12:21:22.338Z,56.30
2018-06-11T12:23:51.370Z,56.10
2018-06-11T12:26:20.354Z,56.20
2018-06-11T12:28:50.782Z,56.30
2018-06-11T12:31:21.859Z,56.10
2018-06-11T12:33:53.103Z,55.70
2018-06-11T12:36:22.112Z,55.70
2018-06-11T12:38:51.354Z,55.60
2018-06-11T12:43:51.351Z,55.60
2018-06-11T12:46:21.232Z,55.50
2018-06-11T12:48:50.514Z,55.70
2018-06-11T12:51:19.833Z,55.40
2018-06-11T12:53:49.096Z,56.10
2018-06-11T12:56:18.427Z,56.20
2018-06-11T12:58:47.423Z,56.30
2018-06-11T13:01:24.090Z,56.40
2018-06-11T13:03:54.166Z,56.60
2018-06-11T13:06:23.118Z,56.90
2018-06-11T13:08:52.118Z,57.10
2018-06-11T13:11:21.067Z,57.30
2018-06-11T13:13:50.069Z,57.50
2018-06-11T13:16:19.205Z,58.10
2018-06-11T13:18:48.810Z,58.00
2018-06-11T13:30:12.886Z,58.90
2018-06-11T13:32:42.767Z,59.30
2018-06-11T13:35:11.731Z,59.80
2018-06-11T13:37:40.834Z,59.90
2018-06-11T13:40:10.247Z,60.40
2018-06-11T13:42:39.430Z,60.60
2018-06-11T13:45:08.923Z,61.00
2018-06-11T13:47:38.942Z,61.30
2018-06-11T13:50:08.058Z,61.70
2018-06-11T13:52:37.051Z,62.30
2018-06-11T13:55:06.059Z,62.80
2018-06-11T13:57:52.702Z,63.30
2018-06-11T14:00:21.811Z,64.30
2018-06-11T14:02:51.152Z,65.30
2018-06-11T14:05:20.119Z,66.30
2018-06-11T14:10:17.614Z,67.70
2018-06-11T14:12:47.078Z,68.20
2018-06-11T14:15:16.119Z,68.60
2018-06-11T14:17:45.420Z,68.70
2018-06-11T14:20:14.382Z,68.70
2018-06-11T14:22:43.358Z,69.00
2018-06-11T14:25:12.323Z,69.40
2018-06-11T14:27:42.196Z,69.40
2018-06-11T14:30:11.591Z,69.20
2018-06-11T14:32:40.586Z,70.30
2018-06-11T14:35:09.542Z,71.20
2018-06-11T14:37:38.523Z,72.30
2018-06-11T14:40:07.506Z,73.00
2018-06-11T14:42:36.531Z,73.60
2018-06-11T14:45:05.674Z,74.10
2018-06-11T14:47:34.679Z,74.70
2018-06-11T14:50:03.647Z,75.40
2018-06-11T14:52:32.674Z,76.00
2018-06-11T14:55:01.624Z,76.90
2018-06-11T14:57:30.655Z,77.20
2018-06-11T14:59:59.629Z,77.70
2018-06-11T15:02:28.619Z,78.30
2018-06-11T15:04:57.617Z,78.70
2018-06-11T15:07:26.615Z,79.10
2018-06-11T15:09:56.007Z,79.70
2018-06-11T15:12:25.078Z,80.10
2018-06-11T15:14:54.114Z,81.30
2018-06-11T15:17:23.207Z,80.90
2018-06-11T15:19:52.349Z,81.50
2018-06-11T15:22:21.430Z,82.10
2018-06-11T15:24:50.647Z,82.50
2018-06-11T15:27:19.639Z,82.60
2018-06-11T15:29:48.592Z,83.70
2018-06-11T15:32:17.574Z,83.20
2018-06-11T15:37:34.200Z,83.70
2018-06-11T15:40:03.170Z,83.80
2018-06-11T15:42:32.439Z,83.80
2018-06-11T15:45:01.707Z,84.00
2018-06-11T15:47:30.831Z,84.00
2018-06-11T15:49:59.837Z,84.00
2018-06-11T15:52:28.815Z,84.00
2018-06-11T15:55:04.058Z,84.20
2018-06-11T15:57:33.064Z,84.40
2018-06-11T16:00:02.156Z,84.80
2018-06-11T16:02:31.197Z,84.90
2018-06-11T16:05:00.454Z,85.40
2018-06-11T16:07:29.611Z,85.70
2018-06-11T16:09:58.566Z,86.00
2018-06-11T16:44:06.813Z,87.70
2018-06-11T16:46:35.859Z,88.40
2018-06-11T16:49:04.946Z,88.20
2018-06-11T16:51:34.182Z,88.50
2018-06-11T16:54:03.383Z,88.90
2018-06-11T16:56:32.378Z,89.20
2018-06-11T16:59:01.391Z,89.20
2018-06-11T17:01:30.379Z,89.20
2018-06-11T17:03:59.598Z,89.10
2018-06-11T17:06:28.879Z,89.10
2018-06-11T17:08:58.116Z,89.10
2018-06-11T17:11:33.235Z,89.10
2018-06-11T17:14:02.484Z,89.10
2018-06-11T17:16:31.947Z,89.80
2018-06-11T17:19:12.650Z,90.00
2018-06-11T17:21:41.671Z,90.10
2018-06-11T17:24:11.507Z,90.20
2018-06-11T17:26:40.687Z,90.40
2018-06-11T17:29:09.743Z,90.50
2018-06-11T17:31:38.965Z,90.70
2018-06-11T17:34:09.572Z,90.80
2018-06-11T17:36:38.916Z,91.00
2018-06-11T17:39:08.773Z,91.10
2018-06-11T17:41:38.452Z,91.10
2018-06-11T17:44:07.780Z,91.20
2018-06-11T17:46:38.693Z,91.30
2018-06-11T17:49:07.884Z,91.50
2018-06-11T17:51:36.850Z,91.60
2018-06-11T17:54:06.510Z,91.70
2018-06-11T17:56:35.501Z,91.80
2018-06-11T17:59:21.886Z,91.80
2018-06-11T18:01:50.862Z,91.80
2018-06-11T18:04:19.925Z,91.90
2018-06-11T18:06:48.907Z,92.00
2018-06-11T18:09:17.893Z,92.00
2018-06-11T18:11:46.855Z,92.10
2018-06-11T18:14:15.869Z,92.10
2018-06-11T18:16:44.839Z,92.20
2018-06-11T18:19:13.839Z,92.20
2018-06-11T18:24:36.063Z,92.20
2018-06-11T18:27:05.476Z,92.20
2018-06-11T18:29:34.954Z,92.30
2018-06-11T18:32:07.971Z,92.40
2018-06-11T18:34:36.957Z,92.40
2018-06-11T18:37:06.604Z,92.40
2018-06-11T18:39:35.705Z,92.40
2018-06-11T18:42:24.211Z,92.40
2018-06-11T18:44:53.599Z,92.40
2018-06-11T18:47:22.811Z,92.30
2018-06-11T18:49:52.167Z,92.30
2018-06-11T18:52:21.379Z,92.70
2018-06-11T18:57:19.542Z,92.20
2018-06-11T18:59:50.986Z,92.40
2018-06-11T19:02:20.015Z,92.10
2018-06-11T19:04:49.601Z,92.10
2018-06-11T19:07:18.790Z,92.00
2018-06-11T19:09:47.929Z,92.00
2018-06-11T19:12:17.462Z,92.00
2018-06-11T19:14:46.748Z,92.10
2018-06-11T19:17:15.875Z,92.10
2018-06-11T19:19:44.997Z,92.10
2018-06-11T19:22:14.192Z,92.20
2018-06-11T19:24:43.477Z,92.20
2018-06-11T19:27:12.636Z,92.60
2018-06-11T19:29:41.831Z,92.30
2018-06-11T19:32:10.936Z,92.40
2018-06-11T19:34:40.549Z,92.50
2018-06-11T19:37:10.059Z,92.60
2018-06-11T19:39:39.507Z,92.60
2018-06-11T19:42:09.017Z,92.70
2018-06-11T19:44:38.676Z,92.70
2018-06-11T19:47:08.461Z,92.80
2018-06-11T19:49:38.206Z,92.80
2018-06-11T19:52:08.145Z,92.80
2018-06-11T19:54:37.179Z,92.90
2018-06-11T19:57:06.194Z,92.90
2018-06-11T19:59:35.214Z,92.90
2018-06-11T20:02:04.235Z,93.30
2018-06-11T20:04:34.774Z,92.90
2018-06-11T20:07:03.790Z,92.90
2018-06-11T20:09:32.795Z,92.90
2018-06-11T20:12:01.807Z,92.90
2018-06-11T20:14:31.949Z,93.00
2018-06-11T20:17:01.033Z,92.90
2018-06-11T20:19:30.019Z,93.00
2018-06-11T20:22:00.184Z,93.10
2018-06-11T20:24:29.151Z,93.20
2018-06-11T20:26:58.424Z,93.20
2018-06-11T20:29:28.198Z,93.20
2018-06-11T20:31:57.570Z,93.30
2018-06-11T20:34:26.607Z,93.30
2018-06-11T20:36:55.934Z,93.30
2018-06-11T20:39:25.336Z,93.30
2018-06-11T20:41:54.611Z,93.70
2018-06-11T20:44:23.820Z,93.30
2018-06-11T20:46:53.395Z,93.30
2018-06-11T20:49:23.947Z,93.30
2018-06-11T20:51:52.967Z,93.30
2018-06-11T20:54:22.042Z,93.30
2018-06-11T20:56:51.307Z,93.20
2018-06-11T20:59:20.300Z,93.30
2018-06-11T21:01:49.365Z,93.30
2018-06-11T21:04:18.426Z,93.60
2018-06-11T21:06:47.432Z,93.30
2018-06-11T21:09:16.394Z,93.30
2018-06-11T21:11:45.390Z,93.30
2018-06-11T21:14:14.341Z,93.30
2018-06-11T21:16:43.334Z,93.30
2018-06-11T21:19:12.316Z,93.30
2018-06-11T21:21:41.329Z,93.30
2018-06-11T21:24:10.455Z,93.30
2018-06-11T21:26:39.470Z,93.30
2018-06-11T21:29:08.433Z,93.30
2018-06-11T21:31:37.447Z,93.30
2018-06-11T21:34:06.467Z,93.30
2018-06-11T21:36:35.494Z,93.30
2018-06-11T21:39:06.358Z,93.30
2018-06-11T21:41:35.343Z,93.40
2018-06-11T21:44:04.383Z,93.40
2018-06-11T21:46:33.851Z,93.40
2018-06-11T21:49:02.923Z,93.40
2018-06-11T21:51:32.050Z,93.40
2018-06-11T21:54:01.003Z,93.40
2018-06-11T21:56:29.991Z,93.40
2018-06-11T21:58:58.952Z,93.40
2018-06-11T22:01:27.987Z,93.40
2018-06-11T22:03:57.482Z,93.40
2018-06-11T22:06:26.466Z,93.40
2018-06-11T22:08:55.432Z,93.80
2018-06-11T22:11:24.431Z,93.40
2018-06-11T22:13:53.533Z,93.40
2018-06-11T22:16:22.562Z,93.40
2018-06-11T22:18:51.593Z,93.30
2018-06-11T22:21:20.599Z,93.40
2018-06-11T22:23:49.582Z,93.30
2018-06-11T22:26:18.572Z,93.30
2018-06-11T22:28:47.537Z,93.30
2018-06-11T22:31:16.527Z,93.30
2018-06-11T22:33:45.568Z,93.40
2018-06-11T22:36:14.648Z,93.40
2018-06-11T22:38:43.712Z,93.40
2018-06-11T22:41:12.722Z,93.50
2018-06-11T22:43:41.726Z,93.50
2018-06-11T22:46:10.718Z,93.50
2018-06-11T22:48:39.754Z,93.60
2018-06-11T22:51:08.714Z,93.60
2018-06-11T22:53:37.727Z,94.00
2018-06-11T22:56:06.667Z,93.60
2018-06-11T22:58:35.662Z,93.70
2018-06-11T23:01:04.659Z,93.70
2018-06-11T23:03:33.662Z,93.70
2018-06-11T23:08:31.203Z,93.70
2018-06-11T23:13:28.711Z,93.80
2018-06-11T23:15:57.674Z,93.80
2018-06-11T23:18:26.685Z,93.90
2018-06-11T23:20:55.650Z,93.80
2018-06-11T23:23:24.655Z,93.80
2018-06-11T23:25:53.620Z,93.80
2018-06-11T23:28:22.654Z,93.80
2018-06-11T23:30:51.634Z,93.80
2018-06-11T23:33:20.647Z,93.80
2018-06-11T23:35:49.619Z,93.80
2018-06-11T23:38:18.640Z,93.80
2018-06-11T23:40:47.666Z,93.80
2018-06-11T23:43:16.663Z,93.80
2018-06-11T23:45:45.626Z,93.80
2018-06-11T23:48:14.638Z,93.80
2018-06-11T23:50:43.622Z,93.80
2018-06-11T23:53:12.634Z,93.80
2018-06-11T23:55:41.620Z,93.80
2018-06-11T23:58:10.605Z,93.80
